Ash, Missouri
Current Conditions -  °F | °C
As of 2:35 AM on Saturday 22 Nov 2014 (Local Time) from KVER Reporting Station
Light Rain Light Rain  
Wind Chill:   Ceiling: 2000
Heat Index: 10°   Visibility: 10mi
Dew Point:   Wind: 8mph
Humidity: 85%   Direction: 180°S
Pressure: 30.08"   Gusts: NA
Location:  39.4792°N, 92.217°W
Report Text: KVER 220835Z AUTO 18007KT 10SM -RA OVC020 10/07 A3008 RMK AO2 LTG DSNT SW T00960072
Loading
Personal Weather Stations






























Interactive Weather Map New forecast layout! Learn more

10-Day Weather Forecast

Advertisements
Track Severe Weather on mobile